createdAt,value
2023-04-02T00:01:26.814Z,101096.16
2023-04-02T00:04:03.495Z,101089.88
2023-04-02T00:06:33.354Z,101095.53
2023-04-02T00:09:20.050Z,101102.66
2023-04-02T00:11:54.637Z,101098.91
2023-04-02T00:14:28.798Z,101097.22
2023-04-02T00:16:56.409Z,101105.38
2023-04-02T00:19:36.323Z,101104.53
2023-04-02T00:22:06.455Z,101108.94
2023-04-02T00:24:33.662Z,101114.59
2023-04-02T00:27:00.499Z,101120.91
2023-04-02T00:29:27.127Z,101120.91
2023-04-02T00:31:54.389Z,101121.75
2023-04-02T00:34:32.537Z,101119.00
2023-04-02T00:36:59.226Z,101120.03
2023-04-02T00:39:27.714Z,101129.06
2023-04-02T00:42:04.776Z,101131.78
2023-04-02T00:44:32.965Z,101136.41
2023-04-02T00:47:03.333Z,101133.69
2023-04-02T00:49:34.812Z,101139.97
2023-04-02T00:52:06.761Z,101148.16
2023-04-02T00:54:37.801Z,101141.84
2023-04-02T00:57:04.526Z,101146.47
2023-04-02T00:59:36.753Z,101150.19
2023-04-02T01:02:17.380Z,101151.91
2023-04-02T01:04:54.395Z,101151.03
2023-04-02T01:07:27.991Z,101161.94
2023-04-02T01:09:57.466Z,101152.91
2023-04-02T01:12:30.152Z,101161.09
2023-04-02T01:15:09.758Z,101159.22
2023-04-02T01:17:48.945Z,101166.53
2023-04-02T01:20:34.332Z,101170.09
2023-04-02T01:23:00.714Z,101178.28
2023-04-02T01:25:32.464Z,101183.09
2023-04-02T01:28:29.526Z,101185.63
2023-04-02T01:30:57.350Z,101183.94
2023-04-02T01:33:25.021Z,101187.50
2023-04-02T01:36:11.715Z,101196.50
2023-04-02T01:38:45.977Z,101208.25
2023-04-02T01:41:18.174Z,101203.84
2023-04-02T01:43:54.404Z,101207.41
2023-04-02T01:46:31.997Z,101210.13
2023-04-02T01:49:00.888Z,101209.28
2023-04-02T01:51:29.573Z,101216.44
2023-04-02T01:53:56.678Z,101222.06
2023-04-02T01:56:23.233Z,101227.34
2023-04-02T01:58:50.023Z,101229.22
2023-04-02T02:01:19.563Z,101223.97
2023-04-02T02:03:46.238Z,101235.69
2023-04-02T02:06:14.256Z,101239.28
2023-04-02T02:08:46.789Z,101251.03
2023-04-02T02:11:18.003Z,101247.63
2023-04-02T02:13:48.382Z,101258.53
2023-04-02T02:16:17.837Z,101262.97
2023-04-02T02:18:46.759Z,101268.41
2023-04-02T02:21:18.269Z,101262.31
2023-04-02T02:23:44.795Z,101269.44
2023-04-02T02:26:13.149Z,101274.88
2023-04-02T02:28:42.563Z,101283.06
2023-04-02T02:31:17.862Z,101278.47
2023-04-02T02:33:50.340Z,101292.09
2023-04-02T02:36:19.665Z,101293.97
2023-04-02T02:38:49.346Z,101295.66
2023-04-02T02:41:24.744Z,101308.44
2023-04-02T02:43:56.285Z,101308.44
2023-04-02T02:46:23.723Z,101308.44
2023-04-02T02:48:52.065Z,101311.16
2023-04-02T02:51:22.396Z,101319.34
2023-04-02T02:53:51.944Z,101321.22
2023-04-02T02:56:19.144Z,101323.94
2023-04-02T02:58:45.765Z,101324.78
2023-04-02T03:01:12.349Z,101330.25
2023-04-02T03:03:39.041Z,101334.66
2023-04-02T03:06:07.493Z,101339.25
2023-04-02T03:08:37.069Z,101346.59
2023-04-02T03:11:07.913Z,101343.88
2023-04-02T03:13:35.634Z,101353.75
2023-04-02T03:16:22.952Z,101355.63
2023-04-02T03:18:49.372Z,101357.31
2023-04-02T03:21:31.453Z,101365.50
2023-04-02T03:24:01.017Z,101367.38
2023-04-02T03:26:32.617Z,101367.38
2023-04-02T03:29:02.050Z,101379.13
2023-04-02T03:31:34.384Z,101379.13
2023-04-02T03:34:30.195Z,101393.59
2023-04-02T03:36:57.792Z,101392.75
2023-04-02T03:39:32.169Z,101385.59
2023-04-02T03:42:13.842Z,101391.91
2023-04-02T03:44:49.788Z,101392.75
2023-04-02T03:47:28.420Z,101401.94
2023-04-02T03:50:01.571Z,101401.09
2023-04-02T03:52:28.865Z,101405.72
2023-04-02T03:54:56.987Z,101414.72
2023-04-02T03:57:31.753Z,101414.53
2023-04-02T04:00:24.505Z,101417.28
2023-04-02T04:02:52.912Z,101417.28
2023-04-02T04:05:39.603Z,101425.44
2023-04-02T04:08:13.963Z,101429.91
2023-04-02T04:10:40.802Z,101439.06
2023-04-02T04:13:11.313Z,101443.69
2023-04-02T04:15:47.312Z,101444.53
2023-04-02T04:18:24.244Z,101458.16
2023-04-02T04:20:56.689Z,101449.13
2023-04-02T04:23:32.403Z,101453.72
2023-04-02T04:26:09.491Z,101460.03
2023-04-02T04:28:47.290Z,101454.56
2023-04-02T04:31:25.340Z,101459.00
2023-04-02T04:34:03.066Z,101464.63
2023-04-02T04:36:32.230Z,101474.50
2023-04-02T04:39:00.543Z,101475.34
2023-04-02T04:41:29.617Z,101480.97
2023-04-02T04:43:56.006Z,101481.84
2023-04-02T04:46:30.974Z,101489.16
2023-04-02T04:49:35.916Z,101490.84
2023-04-02T04:52:14.569Z,101492.72
2023-04-02T04:54:41.160Z,101500.06
2023-04-02T04:57:18.711Z,101506.34
2023-04-02T04:59:50.198Z,101510.97
2023-04-02T05:02:18.653Z,101517.25
2023-04-02T05:04:49.286Z,101515.38
2023-04-02T05:07:36.046Z,101520.84
2023-04-02T05:10:17.214Z,101523.56
2023-04-02T05:12:46.392Z,101537.88
2023-04-02T05:15:16.277Z,101541.47
2023-04-02T05:17:56.078Z,101543.34
2023-04-02T05:20:25.665Z,101549.63
2023-04-02T05:22:58.067Z,101556.78
2023-04-02T05:25:28.757Z,101564.97
2023-04-02T05:28:04.512Z,101572.09
2023-04-02T05:30:49.533Z,101573.84
2023-04-02T05:33:22.462Z,101577.41
2023-04-02T05:35:51.291Z,101577.41
2023-04-02T05:38:20.806Z,101578.06
2023-04-02T05:40:48.206Z,101579.78
2023-04-02T05:43:17.234Z,101585.91
2023-04-02T05:45:45.324Z,101584.75
2023-04-02T05:48:20.013Z,101581.84
2023-04-02T05:50:49.580Z,101597.00
2023-04-02T05:53:19.976Z,101593.91
2023-04-02T05:55:52.485Z,101598.38
2023-04-02T06:01:02.261Z,101604.31
2023-04-02T06:03:37.608Z,101610.50
2023-04-02T06:06:08.113Z,101618.34
2023-04-02T06:08:39.591Z,101621.91
2023-04-02T06:11:09.888Z,101631.59
2023-04-02T06:13:36.452Z,101637.91
2023-04-02T06:16:03.467Z,101640.50
2023-04-02T06:18:34.731Z,101637.75
2023-04-02T06:21:01.289Z,101643.03
2023-04-02T06:23:36.812Z,101647.47
2023-04-02T06:26:09.991Z,101656.34
2023-04-02T06:28:40.862Z,101667.06
2023-04-02T06:31:15.756Z,101672.38
2023-04-02T06:33:43.237Z,101667.75
2023-04-02T06:36:10.212Z,101680.38
2023-04-02T06:38:37.844Z,101678.50
2023-04-02T06:41:07.774Z,101681.06
2023-04-02T06:43:55.948Z,101686.53
2023-04-02T06:46:28.155Z,101696.41
2023-04-02T06:48:58.655Z,101695.56
2023-04-02T06:51:26.275Z,101707.13
2023-04-02T06:53:53.389Z,101708.84
2023-04-02T06:56:25.582Z,101705.25
2023-04-02T06:58:52.021Z,101715.31
2023-04-02T07:01:22.315Z,101719.75
2023-04-02T07:03:48.798Z,101718.91
2023-04-02T07:06:16.652Z,101728.97
2023-04-02T07:08:43.151Z,101728.97
2023-04-02T07:11:18.712Z,101734.41
2023-04-02T07:13:46.730Z,101746.19
2023-04-02T07:16:18.346Z,101748.91
2023-04-02T07:18:45.615Z,101752.66
2023-04-02T07:21:12.044Z,101760.00
2023-04-02T07:23:38.478Z,101764.59
2023-04-02T07:26:05.672Z,101772.78
2023-04-02T07:28:32.152Z,101767.16
2023-04-02T07:30:58.631Z,101777.38
2023-04-02T07:33:27.240Z,101781.81
2023-04-02T07:35:54.562Z,101779.25
2023-04-02T07:38:21.268Z,101782.00
2023-04-02T07:40:47.830Z,101790.19
2023-04-02T07:43:15.429Z,101792.03
2023-04-02T07:45:41.958Z,101793.06
2023-04-02T07:48:10.491Z,101796.63
2023-04-02T07:50:37.331Z,101808.56
2023-04-02T07:53:04.198Z,101816.75
2023-04-02T07:55:30.724Z,101817.78
2023-04-02T07:57:58.493Z,101808.75
2023-04-02T08:00:26.736Z,101827.00
2023-04-02T08:02:53.404Z,101834.28
2023-04-02T08:05:19.863Z,101851.69
2023-04-02T08:07:56.773Z,101840.78
2023-04-02T08:10:23.578Z,101845.38
2023-04-02T08:12:50.185Z,101844.53
2023-04-02T08:15:17.046Z,101841.81
2023-04-02T08:17:43.530Z,101845.38
2023-04-02T08:20:14.841Z,101849.97
2023-04-02T08:22:41.314Z,101847.25
2023-04-02T08:25:07.963Z,101855.44
2023-04-02T08:27:34.383Z,101859.00
2023-04-02T08:30:00.809Z,101855.25
2023-04-02T08:32:29.060Z,101854.41
2023-04-02T08:34:55.594Z,101854.09
2023-04-02T08:37:22.058Z,101862.28
2023-04-02T08:39:48.537Z,101866.56
2023-04-02T08:42:24.073Z,101863.66
2023-04-02T08:44:50.534Z,101867.03
2023-04-02T08:47:19.110Z,101875.94
2023-04-02T08:49:54.424Z,101876.78
2023-04-02T08:52:26.623Z,101886.53
2023-04-02T08:54:56.099Z,101870.16
2023-04-02T08:57:55.182Z,101870.16
2023-04-02T09:00:21.971Z,101876.28
2023-04-02T09:03:08.675Z,101879.00
2023-04-02T09:05:37.754Z,101876.09
2023-04-02T09:08:07.901Z,101881.41
2023-04-02T09:10:39.764Z,101893.19
2023-04-02T09:13:13.650Z,101897.59
2023-04-02T09:15:40.023Z,101915.69
2023-04-02T09:18:24.708Z,101910.22
2023-04-02T09:20:51.170Z,101906.50
2023-04-02T09:23:22.430Z,101920.81
2023-04-02T09:26:02.929Z,101915.34
2023-04-02T09:28:30.478Z,101912.63
2023-04-02T09:31:02.021Z,101931.72
2023-04-02T09:33:41.434Z,101925.41
2023-04-02T09:36:17.192Z,101927.31
2023-04-02T09:38:57.044Z,101928.31
2023-04-02T09:41:27.197Z,101943.66
2023-04-02T09:44:11.978Z,101943.84
2023-04-02T09:46:47.884Z,101932.94
2023-04-02T09:49:16.150Z,101934.78
2023-04-02T09:51:42.590Z,101941.25
2023-04-02T09:54:13.788Z,101959.34
2023-04-02T09:56:41.113Z,101961.22
2023-04-02T09:59:17.926Z,101965.81
2023-04-02T10:01:45.870Z,101969.56
2023-04-02T10:04:31.441Z,101973.34
2023-04-02T10:06:59.141Z,101978.94
2023-04-02T10:09:30.694Z,101972.63
2023-04-02T10:11:57.402Z,101979.97
2023-04-02T10:14:44.988Z,101990.88
2023-04-02T10:17:20.755Z,101982.88
2023-04-02T10:19:50.479Z,101982.00
2023-04-02T10:22:17.787Z,102006.56
2023-04-02T10:24:44.342Z,102000.22
2023-04-02T10:27:29.807Z,101994.78
2023-04-02T10:30:05.568Z,101997.66
2023-04-02T10:32:45.512Z,102007.72
2023-04-02T10:35:30.929Z,102005.19
2023-04-02T10:38:03.347Z,102009.59
2023-04-02T10:40:35.660Z,102004.28
2023-04-02T10:43:02.123Z,102005.19
2023-04-02T10:45:37.514Z,101997.00
2023-04-02T10:48:11.297Z,101995.97
2023-04-02T10:50:49.647Z,102000.41
2023-04-02T10:53:17.900Z,102012.03
2023-04-02T10:55:45.774Z,102014.75
2023-04-02T10:58:19.419Z,102012.03
2023-04-02T11:00:47.316Z,102008.25
2023-04-02T11:03:16.607Z,102028.03
2023-04-02T11:05:44.175Z,102025.31
2023-04-02T11:08:17.039Z,102022.59
2023-04-02T11:10:46.758Z,102020.72
2023-04-02T11:13:16.842Z,102028.75
2023-04-02T11:15:43.414Z,102022.59
2023-04-02T11:18:23.691Z,102023.28
2023-04-02T11:20:50.133Z,102029.78
2023-04-02T11:23:20.309Z,102026.88
2023-04-02T11:25:47.413Z,102019.53
2023-04-02T11:28:19.004Z,102034.88
2023-04-02T11:30:48.001Z,102042.22
2023-04-02T11:33:37.033Z,102037.63
2023-04-02T11:36:04.124Z,102051.25
2023-04-02T11:38:52.341Z,102062.16
2023-04-02T11:41:37.687Z,102056.72
2023-04-02T11:44:04.706Z,102051.25
2023-04-02T11:46:41.530Z,102059.44
2023-04-02T11:49:33.422Z,102064.91
2023-04-02T11:52:09.322Z,102076.84
2023-04-02T11:54:38.950Z,102083.16
2023-04-02T11:57:28.144Z,102078.53
2023-04-02T12:00:16.898Z,102074.97
2023-04-02T12:02:56.733Z,102075.81
2023-04-02T12:05:27.441Z,102082.13
2023-04-02T12:08:13.633Z,102087.56
2023-04-02T12:10:46.110Z,102109.41
2023-04-02T12:13:38.814Z,102099.38
2023-04-02T12:16:06.665Z,102094.91
2023-04-02T12:18:33.395Z,102114.88
2023-04-02T12:20:59.859Z,102104.84
2023-04-02T12:23:26.534Z,102106.69
2023-04-02T12:25:55.274Z,102106.69
2023-04-02T12:28:22.423Z,102105.69
2023-04-02T12:30:50.616Z,102122.06
2023-04-02T12:33:20.050Z,102110.13
2023-04-02T12:35:47.283Z,102122.91
2023-04-02T12:38:19.804Z,102126.50
2023-04-02T12:40:56.854Z,102128.38
2023-04-02T12:43:24.076Z,102117.59
2023-04-02T12:46:07.199Z,102123.94
2023-04-02T12:48:34.781Z,102137.56
2023-04-02T12:51:02.253Z,102135.84
2023-04-02T12:53:31.297Z,102137.72
2023-04-02T12:55:57.885Z,102137.72
2023-04-02T12:58:25.970Z,102137.72
2023-04-02T13:00:52.430Z,102144.19
2023-04-02T13:03:20.441Z,102151.53
2023-04-02T13:05:50.714Z,102139.59
2023-04-02T13:08:28.063Z,102146.06
2023-04-02T13:10:56.669Z,102139.75
2023-04-02T13:13:49.562Z,102152.38
2023-04-02T13:16:19.057Z,102152.56
2023-04-02T13:18:47.081Z,102155.28
2023-04-02T13:21:16.463Z,102158.00
2023-04-02T13:23:44.004Z,102148.94
2023-04-02T13:26:13.101Z,102159.00
2023-04-02T13:28:39.578Z,102166.34
2023-04-02T13:31:06.264Z,102157.31
2023-04-02T13:33:32.722Z,102169.06
2023-04-02T13:35:59.394Z,102177.41
2023-04-02T13:38:26.240Z,102174.69
2023-04-02T13:40:52.620Z,102180.16
2023-04-02T13:43:19.925Z,102174.69
2023-04-02T13:45:49.162Z,102171.97
2023-04-02T13:48:15.988Z,102184.75
2023-04-02T13:50:42.606Z,102185.75
2023-04-02T13:53:13.301Z,102199.38
2023-04-02T13:55:41.499Z,102198.53
2023-04-02T13:58:08.250Z,102197.53
2023-04-02T14:00:37.609Z,102198.53
2023-04-02T14:03:09.987Z,102202.28
2023-04-02T14:05:39.411Z,102196.81
2023-04-02T14:08:18.947Z,102203.31
2023-04-02T14:11:07.994Z,102213.38
2023-04-02T14:13:34.325Z,102223.44
2023-04-02T14:16:07.222Z,102225.28
2023-04-02T14:18:48.408Z,102227.00
2023-04-02T14:21:21.250Z,102210.63
2023-04-02T14:23:47.598Z,102219.97
2023-04-02T14:26:29.210Z,102222.72
2023-04-02T14:29:18.624Z,102231.75
2023-04-02T14:31:51.326Z,102236.19
2023-04-02T14:34:20.726Z,102244.53
2023-04-02T14:36:59.487Z,102238.22
2023-04-02T14:39:32.033Z,102235.50
2023-04-02T14:42:01.937Z,102228.34
2023-04-02T14:44:31.604Z,102232.94
2023-04-02T14:47:02.664Z,102239.25
2023-04-02T14:49:32.494Z,102251.88
2023-04-02T14:52:03.920Z,102250.16
2023-04-02T14:54:39.908Z,102245.72
2023-04-02T14:57:11.782Z,102250.16
2023-04-02T14:59:50.747Z,102248.44
2023-04-02T15:02:22.977Z,102249.44
2023-04-02T15:05:01.618Z,102253.03
2023-04-02T15:07:37.265Z,102257.63
2023-04-02T15:10:19.141Z,102264.09
2023-04-02T15:12:46.597Z,102261.38
2023-04-02T15:15:39.273Z,102266.84
2023-04-02T15:18:12.848Z,102267.69
2023-04-02T15:20:43.202Z,102269.56
2023-04-02T15:23:18.676Z,102265.97
2023-04-02T15:25:45.612Z,102276.03
2023-04-02T15:28:24.310Z,102271.44
2023-04-02T15:30:55.004Z,102275.19
2023-04-02T15:33:27.454Z,102289.69
2023-04-02T15:36:04.121Z,102286.94
2023-04-02T15:38:33.694Z,102294.28
2023-04-02T15:41:23.620Z,102292.41
2023-04-02T15:44:10.140Z,102291.56
2023-04-02T15:46:58.562Z,102286.22
2023-04-02T15:49:37.395Z,102318.97
2023-04-02T15:52:04.306Z,102316.22
2023-04-02T15:54:36.852Z,102324.59
2023-04-02T15:57:22.269Z,102321.84
2023-04-02T15:59:57.753Z,102311.97
2023-04-02T16:02:27.185Z,102320.16
2023-04-02T16:04:56.409Z,102327.31
2023-04-02T16:07:24.959Z,102331.75
2023-04-02T16:10:06.942Z,102321.00
2023-04-02T16:12:34.721Z,102327.47
2023-04-02T16:15:18.061Z,102339.25
2023-04-02T16:17:50.725Z,102349.13
2023-04-02T16:20:24.729Z,102350.28
2023-04-02T16:23:01.510Z,102368.44
2023-04-02T16:25:31.310Z,102358.94
2023-04-02T16:28:03.843Z,102357.13
2023-04-02T16:30:39.417Z,102359.19
2023-04-02T16:33:08.711Z,102361.94
2023-04-02T16:35:43.524Z,102362.97
2023-04-02T16:38:19.596Z,102377.19
2023-04-02T16:41:07.116Z,102375.47
2023-04-02T16:43:41.209Z,102393.69
2023-04-02T16:46:35.897Z,102394.56
2023-04-02T16:49:23.608Z,102400.00
2023-04-02T16:51:58.806Z,102406.31
2023-04-02T16:54:41.331Z,102405.44
2023-04-02T16:57:26.598Z,102407.16
2023-04-02T16:59:55.961Z,102408.88
2023-04-02T17:02:37.744Z,102408.00
2023-04-02T17:05:10.102Z,102413.19
2023-04-02T17:07:42.784Z,102420.50
2023-04-02T17:10:24.865Z,102419.63
2023-04-02T17:12:56.926Z,102424.06
2023-04-02T17:15:28.375Z,102429.53
2023-04-02T17:17:58.365Z,102433.25
2023-04-02T17:20:26.043Z,102436.97
2023-04-02T17:22:55.609Z,102437.81
2023-04-02T17:25:27.009Z,102437.81
2023-04-02T17:27:54.513Z,102439.69
2023-04-02T17:30:32.431Z,102447.00
2023-04-02T17:32:58.889Z,102457.91
2023-04-02T17:35:28.463Z,102468.94
2023-04-02T17:37:55.031Z,102463.63
2023-04-02T17:40:47.988Z,102467.38
2023-04-02T17:43:40.790Z,102472.13
2023-04-02T17:46:22.654Z,102469.38
2023-04-02T17:48:51.514Z,102471.09
2023-04-02T17:51:30.003Z,102477.41
2023-04-02T17:54:15.008Z,102477.56
2023-04-02T17:56:44.422Z,102479.44
2023-04-02T17:59:17.323Z,102484.00
2023-04-02T18:01:46.814Z,102495.84
2023-04-02T18:04:21.829Z,102500.59
2023-04-02T18:07:07.395Z,102507.75
2023-04-02T18:09:44.585Z,102508.91
2023-04-02T18:12:31.992Z,102515.34
2023-04-02T18:15:05.537Z,102519.09
2023-04-02T18:17:41.137Z,102514.66
2023-04-02T18:20:22.802Z,102530.13
2023-04-02T18:22:52.282Z,102531.97
2023-04-02T18:25:30.892Z,102539.44
2023-04-02T18:28:00.406Z,102545.91
2023-04-02T18:30:31.094Z,102546.88
2023-04-02T18:33:03.795Z,102547.03
2023-04-02T18:35:48.929Z,102552.63
2023-04-02T18:38:18.151Z,102551.88
2023-04-02T18:40:56.873Z,102560.91
2023-04-02T18:43:32.518Z,102565.50
2023-04-02T18:46:06.497Z,102576.56
2023-04-02T18:48:32.976Z,102574.84
2023-04-02T18:51:00.423Z,102574.09
2023-04-02T18:53:29.343Z,102584.13
2023-04-02T18:56:07.408Z,102590.59
2023-04-02T18:58:45.543Z,102590.72
2023-04-02T19:01:14.382Z,102598.00
2023-04-02T19:03:46.635Z,102608.19
2023-04-02T19:06:19.374Z,102608.47
2023-04-02T19:08:48.489Z,102610.47
2023-04-02T19:11:20.236Z,102617.91
2023-04-02T19:13:48.359Z,102617.06
2023-04-02T19:16:14.794Z,102623.50
2023-04-02T19:18:41.498Z,102630.94
2023-04-02T19:21:15.624Z,102634.66
2023-04-02T19:23:42.162Z,102640.97
2023-04-02T19:26:15.609Z,102644.69
2023-04-02T19:28:42.011Z,102650.25
2023-04-02T19:31:34.854Z,102653.97
2023-04-02T19:34:19.851Z,102666.88
2023-04-02T19:36:55.609Z,102661.56
2023-04-02T19:39:34.058Z,102658.84
2023-04-02T19:42:06.539Z,102664.44
2023-04-02T19:44:32.941Z,102670.72
2023-04-02T19:46:59.441Z,102678.19
2023-04-02T19:49:30.415Z,102677.31
2023-04-02T19:51:57.080Z,102683.75
2023-04-02T19:54:23.438Z,102690.19
2023-04-02T19:56:50.169Z,102692.06
2023-04-02T19:59:18.731Z,102698.50
2023-04-02T20:01:45.737Z,102694.03
2023-04-02T20:04:12.315Z,102692.31
2023-04-02T20:06:38.855Z,102700.38
2023-04-02T20:09:05.339Z,102705.91
2023-04-02T20:11:31.766Z,102713.22
2023-04-02T20:13:58.205Z,102712.63
2023-04-02T20:16:24.788Z,102719.06
2023-04-02T20:18:51.601Z,102713.78
2023-04-02T20:21:18.128Z,102722.91
2023-04-02T20:23:44.795Z,102719.22
2023-04-02T20:26:12.668Z,102724.78
2023-04-02T20:28:39.589Z,102744.69
2023-04-02T20:31:16.152Z,102729.34
2023-04-02T20:33:44.240Z,102732.81
2023-04-02T20:36:12.637Z,102738.84
2023-04-02T20:38:39.670Z,102740.59
2023-04-02T20:41:07.258Z,102754.91
2023-04-02T20:43:33.838Z,102753.19
2023-04-02T20:46:01.801Z,102758.47
2023-04-02T20:48:31.055Z,102758.38
2023-04-02T20:50:57.921Z,102756.63
2023-04-02T20:53:24.337Z,102765.69
2023-04-02T20:55:50.734Z,102757.50
2023-04-02T20:58:18.271Z,102765.69
2023-04-02T21:00:45.728Z,102774.69
2023-04-02T21:03:12.241Z,102774.97
2023-04-02T21:05:45.147Z,102767.66
2023-04-02T21:08:12.142Z,102771.50
2023-04-02T21:10:38.928Z,102788.72
2023-04-02T21:13:05.898Z,102783.38
2023-04-02T21:15:32.889Z,102780.66
2023-04-02T21:17:59.328Z,102785.25
2023-04-02T21:20:27.001Z,102786.25
2023-04-02T21:22:53.630Z,102800.72
2023-04-02T21:25:20.218Z,102799.97
2023-04-02T21:27:46.649Z,102810.84
2023-04-02T21:30:13.211Z,102796.53
2023-04-02T21:32:39.682Z,102807.41
2023-04-02T21:35:07.609Z,102801.09
2023-04-02T21:37:34.013Z,102802.13
2023-04-02T21:40:00.549Z,102806.66
2023-04-02T21:42:27.852Z,102806.81
2023-04-02T21:44:55.949Z,102808.66
2023-04-02T21:47:23.495Z,102804.22
2023-04-02T21:49:49.978Z,102809.53
2023-04-02T21:52:16.513Z,102809.53
2023-04-02T21:54:42.942Z,102813.25
2023-04-02T21:57:09.427Z,102813.41
2023-04-02T21:59:36.002Z,102808.81
2023-04-02T22:02:02.442Z,102817.69
2023-04-02T22:04:30.649Z,102820.41
2023-04-02T22:06:57.578Z,102815.97
2023-04-02T22:09:25.719Z,102825.13
2023-04-02T22:11:59.004Z,102821.66
2023-04-02T22:14:25.998Z,102833.56
2023-04-02T22:16:52.471Z,102828.25
2023-04-02T22:19:19.012Z,102834.66
2023-04-02T22:21:46.192Z,102835.81
2023-04-02T22:24:14.479Z,102843.09
2023-04-02T22:26:41.434Z,102839.63
2023-04-02T22:29:08.102Z,102845.22
2023-04-02T22:31:35.313Z,102843.34
2023-04-02T22:34:02.472Z,102853.50
2023-04-02T22:36:29.066Z,102852.63
2023-04-02T22:38:56.161Z,102857.22
2023-04-02T22:41:25.694Z,102859.94
2023-04-02T22:43:52.426Z,102857.34
2023-04-02T22:46:19.443Z,102861.78
2023-04-02T22:48:46.469Z,102866.22
2023-04-02T22:51:13.817Z,102859.94
2023-04-02T22:53:40.682Z,102868.09
2023-04-02T22:56:12.110Z,102859.06
2023-04-02T22:58:38.829Z,102869.81
2023-04-02T23:01:10.254Z,102873.38
2023-04-02T23:03:36.737Z,102869.81
2023-04-02T23:06:07.799Z,102878.13
2023-04-02T23:08:37.836Z,102870.31
2023-04-02T23:11:06.258Z,102882.91
2023-04-02T23:13:33.430Z,102880.97
2023-04-02T23:16:04.326Z,102879.19
2023-04-02T23:18:34.694Z,102876.47
2023-04-02T23:21:01.194Z,102891.94
2023-04-02T23:23:28.013Z,102877.72
2023-04-02T23:26:04.090Z,102881.19
2023-04-02T23:28:30.807Z,102879.47
2023-04-02T23:30:57.241Z,102881.19
2023-04-02T23:33:23.708Z,102880.31
2023-04-02T23:35:50.272Z,102895.78
2023-04-02T23:38:16.761Z,102894.94
2023-04-02T23:40:43.180Z,102888.50
2023-04-02T23:43:09.659Z,102890.22
2023-04-02T23:45:36.333Z,102883.78
2023-04-02T23:48:02.813Z,102884.63
2023-04-02T23:50:29.335Z,102892.78
2023-04-02T23:52:55.771Z,102895.50
2023-04-02T23:55:22.174Z,102893.56
2023-04-02T23:57:48.582Z,102891.84
